Time;durP1;ratioP1;P1;durP2;ratioP2;P2;SDS_P1;SDS_P2;PMS_P1;PMS_P2;Temp;Humidity;BMP_temperature;BMP_pressure;BME280_temperature;BME280_humidity;BME280_pressure;Samples;Min_cycle;Max_cycle;Signal;HPM_P1;HPM_P2
2021/03/29 00:00:11;;;;;;;44.77;21.73;;;;;;;0.21;65.45;100222.94;2181360;81;21119;-79
2021/03/29 00:03:14;;;;;;;43.80;21.53;;;;;;;0.26;65.50;100227.63;2180987;81;21114;-79
2021/03/29 00:06:15;;;;;;;45.97;21.00;;;;;;;0.30;65.60;100224.89;2181309;82;21281;-79
2021/03/29 00:09:17;;;;;;;44.33;20.63;;;;;;;0.36;65.58;100234.73;2181456;81;21130;-78
2021/03/29 00:12:22;;;;;;;43.60;20.53;;;;;;;0.42;65.47;100223.63;2180990;81;21087;-79
2021/03/29 00:15:23;;;;;;;;;;;;;;;0.43;65.40;100226.30;2183639;82;21288;-79
2021/03/29 00:18:24;;;;;;;35.23;16.90;;;;;;;0.47;65.49;100225.74;2180987;82;20138;-79
2021/03/29 00:21:25;;;;;;;39.23;17.73;;;;;;;0.52;65.53;100226.08;2181007;81;21114;-80
2021/03/29 00:24:26;;;;;;;36.20;17.20;;;;;;;0.56;65.39;100227.70;2180969;81;21116;-79
2021/03/29 00:27:27;;;;;;;36.80;16.57;;;;;;;0.61;65.40;100230.21;2180928;81;21130;-80
2021/03/29 00:30:29;;;;;;;36.47;16.63;;;;;;;0.69;65.46;100227.30;2181031;81;21079;-80
2021/03/29 00:33:29;;;;;;;36.43;16.27;;;;;;;0.76;65.43;100229.53;2180772;81;21133;-80
2021/03/29 00:36:31;;;;;;;35.17;16.43;;;;;;;0.80;65.37;100232.83;2180857;81;21125;-80
2021/03/29 00:39:32;;;;;;;30.07;15.23;;;;;;;0.84;65.35;100228.41;2181071;81;21386;-80
2021/03/29 00:42:33;;;;;;;33.07;15.77;;;;;;;0.94;65.33;100234.35;2181349;82;21132;-80
2021/03/29 00:45:34;;;;;;;32.37;16.13;;;;;;;0.95;65.19;100229.71;2177047;81;21268;-80
2021/03/29 00:48:39;;;;;;;35.23;17.17;;;;;;;0.99;65.22;100235.97;2163758;82;21087;-80
2021/03/29 00:51:40;;;;;;;33.20;16.23;;;;;;;1.05;65.27;100240.66;2164785;82;21123;-80
2021/03/29 00:54:42;;;;;;;33.50;16.40;;;;;;;1.10;65.22;100232.88;2164620;82;21134;-80
2021/03/29 00:57:43;;;;;;;32.77;16.07;;;;;;;1.12;65.16;100233.48;2163533;82;21138;-80
2021/03/29 01:00:46;;;;;;;30.60;15.63;;;;;;;1.17;65.17;100232.52;2163238;82;21094;-79
2021/03/29 01:03:47;;;;;;;30.60;15.07;;;;;;;1.22;65.12;100232.06;2163228;82;21119;-79
2021/03/29 01:06:48;;;;;;;32.17;15.87;;;;;;;1.26;65.17;100234.45;2163075;82;21171;-79
2021/03/29 01:09:49;;;;;;;31.27;15.33;;;;;;;1.26;65.21;100232.78;2163176;82;21253;-79
2021/03/29 01:12:50;;;;;;;38.10;16.00;;;;;;;1.28;65.36;100227.73;2163208;82;21099;-79
2021/03/29 01:15:51;;;;;;;37.67;15.33;;;;;;;1.32;65.42;100224.59;2163032;82;21265;-79
2021/03/29 01:18:52;;;;;;;36.37;16.40;;;;;;;1.38;65.36;100227.59;2162593;82;21242;-79
2021/03/29 01:21:53;;;;;;;36.00;15.43;;;;;;;1.40;65.43;100219.59;2163101;82;21134;-79
2021/03/29 01:24:54;;;;;;;33.17;15.23;;;;;;;1.43;65.31;100224.05;2163275;82;21273;-79
2021/03/29 01:27:55;;;;;;;71.17;19.80;;;;;;;1.48;65.21;100218.84;2162919;82;21389;-80
2021/03/29 01:30:56;;;;;;;35.07;16.03;;;;;;;1.54;65.37;100217.97;2163118;82;21233;-78
2021/03/29 01:33:57;;;;;;;30.00;16.53;;;;;;;1.60;65.18;100219.68;2163416;82;21220;-78
2021/03/29 01:36:58;;;;;;;35.83;16.23;;;;;;;1.67;65.19;100219.70;2163085;82;21230;-78
2021/03/29 01:39:59;;;;;;;32.67;16.83;;;;;;;1.74;65.08;100221.55;2162975;82;21225;-78
2021/03/29 01:43:00;;;;;;;37.20;16.93;;;;;;;1.77;65.07;100229.48;2162965;82;21234;-78
2021/03/29 01:46:01;;;;;;;35.50;16.33;;;;;;;1.82;65.27;100225.94;2168332;82;21145;-78
2021/03/29 01:49:03;;;;;;;32.23;15.63;;;;;;;1.86;65.33;100222.38;2180390;81;21404;-79
2021/03/29 01:52:04;;;;;;;31.77;16.20;;;;;;;1.90;65.34;100228.24;2180272;81;21499;-78
2021/03/29 01:55:05;;;;;;;35.73;17.53;;;;;;;1.97;65.32;100222.22;2180220;81;21078;-78
2021/03/29 01:58:06;;;;;;;34.70;16.50;;;;;;;2.01;65.29;100226.39;2180194;81;21253;-78
2021/03/29 02:01:07;;;;;;;197.43;26.13;;;;;;;2.04;65.18;100224.02;2179269;81;21126;-79
2021/03/29 02:04:08;;;;;;;35.50;15.87;;;;;;;2.09;65.20;100231.66;2178683;81;21148;-79
2021/03/29 02:07:09;;;;;;;57.63;18.30;;;;;;;2.13;65.13;100234.05;2180851;81;21267;-79
2021/03/29 02:10:10;;;;;;;34.93;15.83;;;;;;;2.13;65.17;100236.23;2178987;81;21134;-79
2021/03/29 02:13:11;;;;;;;37.23;17.20;;;;;;;2.15;65.07;100235.94;2180062;81;21262;-78
2021/03/29 02:16:12;;;;;;;30.73;16.60;;;;;;;2.16;65.05;100233.86;2180288;81;21141;-78
2021/03/29 02:19:13;;;;;;;41.07;17.23;;;;;;;2.18;65.08;100232.67;2180735;81;21507;-78
2021/03/29 02:22:15;;;;;;;33.10;15.87;;;;;;;2.21;65.07;100227.72;2180398;81;21122;-78
2021/03/29 02:25:16;;;;;;;104.20;23.27;;;;;;;2.24;64.96;100228.81;2181508;82;21164;-79
2021/03/29 02:28:17;;;;;;;76.10;20.77;;;;;;;2.27;65.03;100225.95;2180980;81;21237;-78
2021/03/29 02:31:18;;;;;;;33.73;17.27;;;;;;;2.27;64.99;100225.55;2180248;81;21118;-78
2021/03/29 02:34:19;;;;;;;30.33;16.43;;;;;;;2.29;64.96;100227.84;2180143;81;21406;-78
2021/03/29 02:37:23;;;;;;;37.87;16.70;;;;;;;2.33;65.05;100228.53;2180116;81;21106;-78
2021/03/29 02:40:24;;;;;;;36.13;17.17;;;;;;;2.38;65.09;100231.02;2180274;82;21126;-78
2021/03/29 02:43:27;;;;;;;35.47;18.07;;;;;;;2.43;65.17;100229.64;2180000;81;21399;-78
2021/03/29 02:46:28;;;;;;;38.47;19.13;;;;;;;2.46;65.28;100229.84;2180349;81;21261;-78
2021/03/29 02:49:29;;;;;;;36.97;19.17;;;;;;;2.49;65.28;100237.77;2179883;81;21086;-78
2021/03/29 02:52:30;;;;;;;39.23;19.43;;;;;;;2.52;65.17;100236.69;2180213;81;21368;-78
2021/03/29 02:55:31;;;;;;;42.87;19.83;;;;;;;2.57;65.23;100240.84;2180394;81;21121;-78
2021/03/29 02:58:32;;;;;;;41.93;20.20;;;;;;;2.55;65.33;100243.33;2180111;81;21415;-78
2021/03/29 03:01:33;;;;;;;46.90;19.93;;;;;;;2.63;65.29;100246.84;2180084;81;21799;-78
2021/03/29 03:04:34;;;;;;;38.10;19.63;;;;;;;2.68;65.04;100251.89;2179928;81;21118;-78
2021/03/29 03:07:35;;;;;;;46.07;21.87;;;;;;;2.71;65.03;100248.23;2179283;81;21110;-78
2021/03/29 03:10:36;;;;;;;43.10;20.47;;;;;;;2.73;65.02;100246.24;2179787;81;21130;-78
2021/03/29 03:13:37;;;;;;;38.13;19.70;;;;;;;2.77;65.09;100242.17;2178718;81;21133;-78
2021/03/29 03:16:38;;;;;;;42.47;20.83;;;;;;;2.79;65.06;100241.88;2178436;81;21150;-78
2021/03/29 03:19:40;;;;;;;45.67;20.93;;;;;;;2.82;65.12;100250.70;2178557;81;21130;-78
2021/03/29 03:22:41;;;;;;;45.07;21.10;;;;;;;2.84;65.37;100241.38;2179080;81;21392;-78
2021/03/29 03:25:42;;;;;;;43.63;18.67;;;;;;;2.87;65.32;100246.73;2179041;82;21272;-78
2021/03/29 03:28:43;;;;;;;41.37;19.43;;;;;;;4.30;66.50;100231.88;2179129;81;21114;-78
2021/03/29 03:31:44;;;;;;;40.13;19.87;;;;;;;4.19;63.79;100237.70;2179554;81;21245;-78
2021/03/29 03:34:45;;;;;;;39.50;19.23;;;;;;;3.91;63.62;100237.75;2178928;81;21083;-79
2021/03/29 03:37:46;;;;;;;47.57;20.83;;;;;;;3.67;63.69;100245.31;2176287;81;21169;-80
2021/03/29 03:40:47;;;;;;;42.27;21.10;;;;;;;3.49;63.70;100237.33;2176110;81;21114;-78
2021/03/29 03:43:48;;;;;;;49.27;21.80;;;;;;;3.39;64.13;100241.39;2175576;81;21393;-79
2021/03/29 03:46:49;;;;;;;53.03;21.70;;;;;;;3.29;64.15;100239.93;2175896;81;21154;-79
2021/03/29 03:49:50;;;;;;;45.43;21.10;;;;;;;3.21;64.55;100239.84;2175893;81;21264;-78
2021/03/29 03:52:51;;;;;;;41.73;20.70;;;;;;;3.20;64.67;100240.64;2175226;81;21583;-79
2021/03/29 03:55:52;;;;;;;41.93;20.37;;;;;;;3.16;64.49;100239.56;2174066;81;21172;-78
2021/03/29 03:58:53;;;;;;;46.57;20.07;;;;;;;3.18;64.58;100238.36;2172675;81;21142;-78
2021/03/29 04:01:54;;;;;;;42.27;20.83;;;;;;;3.15;64.85;100236.48;2173030;82;21288;-78
2021/03/29 04:04:55;;;;;;;45.70;21.27;;;;;;;3.15;64.81;100246.80;2172857;81;21301;-79
2021/03/29 04:07:59;;;;;;;38.27;20.40;;;;;;;3.15;65.02;100246.80;2173019;81;21280;-79
2021/03/29 04:11:00;;;;;;;58.53;22.77;;;;;;;3.15;64.92;100250.67;2173709;81;22121;-78
2021/03/29 04:14:01;;;;;;;50.40;20.87;;;;;;;3.16;65.51;100248.98;2171937;81;21276;-79
2021/03/29 04:17:02;;;;;;;42.20;20.70;;;;;;;3.17;65.62;100248.19;2173777;81;21474;-78
2021/03/29 04:20:03;;;;;;;41.33;20.70;;;;;;;3.17;65.44;100242.63;2173252;81;21269;-78
2021/03/29 04:23:04;;;;;;;41.63;20.93;;;;;;;3.19;65.63;100247.89;2172572;81;21451;-78
2021/03/29 04:26:06;;;;;;;40.17;21.43;;;;;;;3.22;65.95;100249.77;2171556;81;21566;-78
2021/03/29 04:29:07;;;;;;;49.07;22.63;;;;;;;3.26;65.80;100255.22;2171829;81;21138;-79
2021/03/29 04:32:08;;;;;;;45.70;22.90;;;;;;;3.27;65.78;100257.01;2174696;81;21312;-78
2021/03/29 04:35:09;;;;;;;48.27;21.80;;;;;;;3.26;66.31;100249.17;2173192;81;21269;-78
2021/03/29 04:38:10;;;;;;;42.50;20.67;;;;;;;3.22;66.59;100251.06;2173210;81;21907;-79
2021/03/29 04:41:11;;;;;;;52.17;23.53;;;;;;;3.17;66.67;100254.25;2173035;82;21102;-78
2021/03/29 04:44:12;;;;;;;38.70;22.43;;;;;;;3.18;66.95;100252.16;2175004;81;21626;-78
2021/03/29 04:47:13;;;;;;;48.00;23.93;;;;;;;3.16;67.10;100247.70;2174749;81;21142;-78
2021/03/29 04:50:14;;;;;;;49.73;23.13;;;;;;;3.18;67.34;100241.84;2173735;82;21462;-77
2021/03/29 04:53:15;;;;;;;53.07;24.70;;;;;;;3.21;67.46;100242.43;2174877;81;21134;-79
2021/03/29 04:56:16;;;;;;;46.90;23.73;;;;;;;3.20;67.54;100244.12;2175033;81;21653;-78
2021/03/29 04:59:17;;;;;;;55.13;26.63;;;;;;;3.25;67.76;100249.97;2174299;81;21118;-78
2021/03/29 05:02:18;;;;;;;48.47;24.77;;;;;;;3.34;67.63;100250.54;2175669;81;21300;-78
2021/03/29 05:05:20;;;;;;;46.83;24.53;;;;;;;3.42;67.46;100242.88;2174077;81;21165;-78
2021/03/29 05:08:21;;;;;;;51.40;24.40;;;;;;;3.53;67.60;100243.17;2173904;81;21590;-78
2021/03/29 05:11:22;;;;;;;48.40;25.00;;;;;;;3.62;67.73;100242.84;2176160;81;21119;-79
2021/03/29 05:14:23;;;;;;;55.53;26.77;;;;;;;3.70;67.69;100242.92;2174945;81;21150;-81
2021/03/29 05:17:24;;;;;;;55.47;25.83;;;;;;;3.77;67.48;100236.92;2179148;82;21304;-80
2021/03/29 05:20:25;;;;;;;48.97;25.10;;;;;;;3.86;67.62;100231.82;2177198;81;21129;-81
2021/03/29 05:23:26;;;;;;;48.43;24.70;;;;;;;3.98;67.43;100239.02;2173958;81;21253;-78
2021/03/29 05:26:27;;;;;;;48.73;25.37;;;;;;;4.07;67.35;100243.44;2174001;81;21173;-77
2021/03/29 05:29:28;;;;;;;49.03;24.30;;;;;;;4.18;67.29;100248.84;2174818;81;21264;-77
2021/03/29 05:32:29;;;;;;;43.50;22.50;;;;;;;4.26;67.26;100253.17;2174228;81;21151;-78
2021/03/29 05:35:31;;;;;;;42.03;22.60;;;;;;;4.26;67.31;100257.94;2174033;81;21252;-78
2021/03/29 05:38:32;;;;;;;47.10;24.80;;;;;;;4.33;67.50;100254.92;2172446;81;21146;-76
2021/03/29 05:41:33;;;;;;;67.10;26.77;;;;;;;4.43;67.65;100261.16;2173129;81;21281;-77
2021/03/29 05:44:34;;;;;;;76.37;28.80;;;;;;;4.53;67.46;100267.75;2173146;81;21146;-77
2021/03/29 05:47:35;;;;;;;57.87;26.97;;;;;;;4.64;67.01;100269.66;2167364;81;21166;-77
2021/03/29 05:50:36;;;;;;;76.67;30.63;;;;;;;4.75;67.23;100268.59;2158093;82;21241;-77
2021/03/29 05:53:37;;;;;;;59.93;28.27;;;;;;;4.87;66.86;100268.39;2156843;82;21650;-78
2021/03/29 05:56:39;;;;;;;91.10;54.27;;;;;;;4.96;66.94;100268.51;2156920;82;21445;-77
2021/03/29 05:59:41;;;;;;;71.63;37.27;;;;;;;5.06;66.72;100261.75;2156239;82;21572;-77
2021/03/29 06:02:42;;;;;;;60.67;30.13;;;;;;;5.16;66.60;100267.44;2156254;82;21099;-77
2021/03/29 06:05:43;;;;;;;61.33;29.43;;;;;;;5.22;66.80;100267.81;2157614;82;21305;-77
2021/03/29 06:08:44;;;;;;;63.70;31.47;;;;;;;5.25;66.74;100261.52;2156221;82;21444;-77
2021/03/29 06:11:45;;;;;;;63.20;31.67;;;;;;;5.27;66.90;100261.20;2156766;82;21139;-77
2021/03/29 06:14:46;;;;;;;60.70;30.90;;;;;;;5.30;66.71;100261.36;2155779;82;21248;-78
2021/03/29 06:17:47;;;;;;;61.70;30.30;;;;;;;5.33;66.66;100270.59;2156508;82;21259;-77
2021/03/29 06:20:50;;;;;;;64.10;31.43;;;;;;;5.37;66.49;100266.96;2156353;82;21265;-77
2021/03/29 06:23:51;;;;;;;59.83;28.67;;;;;;;5.40;66.39;100259.77;2156498;82;21134;-77
2021/03/29 06:26:52;;;;;;;63.23;29.60;;;;;;;5.47;66.25;100259.30;2156546;82;21468;-78
2021/03/29 06:29:53;;;;;;;61.37;29.67;;;;;;;5.57;66.22;100257.69;2157316;82;21393;-78
2021/03/29 06:32:55;;;;;;;77.43;41.00;;;;;;;5.68;65.72;100248.79;2157160;82;21297;-78
2021/03/29 06:35:56;;;;;;;72.00;33.40;;;;;;;5.83;65.37;100249.12;2156313;82;21501;-78
2021/03/29 06:38:57;;;;;;;71.70;31.67;;;;;;;5.98;65.03;100255.14;2156934;82;21281;-77
2021/03/29 06:41:58;;;;;;;62.50;31.47;;;;;;;6.16;64.52;100249.64;2156288;82;21261;-77
2021/03/29 06:44:59;;;;;;;69.43;36.17;;;;;;;6.35;64.37;100253.66;2156884;82;21285;-77
2021/03/29 06:48:00;;;;;;;62.57;30.37;;;;;;;6.58;64.04;100254.81;2164688;81;21586;-78
2021/03/29 06:51:01;;;;;;;61.60;30.87;;;;;;;6.83;63.46;100254.32;2173568;81;21510;-78
2021/03/29 06:54:04;;;;;;;61.10;29.00;;;;;;;7.07;63.37;100253.36;2173185;81;21422;-77
2021/03/29 06:57:05;;;;;;;61.13;29.50;;;;;;;7.24;62.98;100244.66;2173503;82;21291;-78
2021/03/29 07:00:06;;;;;;;54.77;28.87;;;;;;;7.39;62.66;100253.58;2174806;81;21264;-77
2021/03/29 07:03:07;;;;;;;62.63;29.20;;;;;;;7.51;62.88;100257.16;2174502;81;21574;-77
2021/03/29 07:06:08;;;;;;;59.20;29.30;;;;;;;7.59;62.45;100264.89;2173644;82;21323;-79
2021/03/29 07:09:14;;;;;;;54.13;28.73;;;;;;;7.62;62.38;100264.63;2173490;81;21094;-77
2021/03/29 07:12:15;;;;;;;59.27;29.57;;;;;;;7.61;62.20;100267.16;2176289;82;21106;-77
2021/03/29 07:15:16;;;;;;;54.93;27.23;;;;;;;7.61;62.20;100267.16;2176800;81;21106;-78
2021/03/29 07:18:17;;;;;;;61.43;29.83;;;;;;;7.63;61.92;100273.31;2177272;81;21241;-79
2021/03/29 07:21:18;;;;;;;61.80;29.33;;;;;;;7.66;61.85;100275.64;2176629;81;21244;-78
2021/03/29 07:24:19;;;;;;;53.60;26.77;;;;;;;7.79;62.09;100269.70;2177021;81;21216;-77
2021/03/29 07:27:20;;;;;;;51.77;25.30;;;;;;;7.92;62.05;100264.27;2176620;81;21150;-78
2021/03/29 07:30:21;;;;;;;66.30;27.77;;;;;;;7.92;62.05;100264.27;2176696;81;21090;-78
2021/03/29 07:33:23;;;;;;;50.37;26.03;;;;;;;8.15;61.63;100266.17;2176033;81;21548;-78
2021/03/29 07:36:32;;;;;;;52.80;27.57;;;;;;;8.36;61.03;100262.77;2176168;81;21096;-77
2021/03/29 07:39:36;;;;;;;50.03;26.77;;;;;;;8.48;60.38;100264.17;2176212;81;21098;-77
2021/03/29 07:42:44;;;;;;;46.50;25.32;;;;;;;8.61;60.24;100269.48;2176710;81;21221;-77
2021/03/29 07:45:45;;;;;;;54.27;25.27;;;;;;;8.70;60.07;100272.51;2176276;82;21264;-77
2021/03/29 07:48:47;;;;;;;59.57;26.03;;;;;;;8.85;60.01;100270.54;2165297;81;21126;-78
2021/03/29 07:51:48;;;;;;;71.17;27.00;;;;;;;9.00;59.77;100278.51;2159048;82;21110;-78
2021/03/29 07:54:49;;;;;;;52.07;26.93;;;;;;;9.21;59.25;100275.05;2158909;82;21075;-78
2021/03/29 07:57:50;;;;;;;60.13;26.77;;;;;;;9.47;59.04;100276.48;2159479;82;21094;-77
2021/03/29 08:00:51;;;;;;;51.67;24.73;;;;;;;9.73;58.65;100276.21;2158555;82;21253;-77
2021/03/29 08:03:57;;;;;;;53.43;26.03;;;;;;;10.00;57.79;100281.16;2157445;82;21233;-78
2021/03/29 08:06:58;;;;;;;51.47;24.83;;;;;;;10.30;57.17;100274.00;2156433;82;21603;-79
2021/03/29 08:09:59;;;;;;;46.27;24.77;;;;;;;10.61;56.62;100270.77;2158242;82;21570;-78
2021/03/29 08:13:00;;;;;;;52.07;28.07;;;;;;;10.88;56.29;100270.80;2158985;82;21115;-78
2021/03/29 08:16:01;;;;;;;45.47;23.90;;;;;;;11.03;55.09;100276.53;2158840;82;21103;-78
2021/03/29 08:19:02;;;;;;;43.67;20.57;;;;;;;11.17;54.62;100276.56;2158498;82;21130;-77
2021/03/29 08:22:03;;;;;;;39.33;18.30;;;;;;;11.37;54.27;100275.50;2158409;82;21102;-78
2021/03/29 08:25:04;;;;;;;42.30;22.07;;;;;;;11.59;53.94;100271.81;2158412;82;21242;-78
2021/03/29 08:28:05;;;;;;;48.55;22.80;;;;;;;11.84;52.64;100264.73;2158559;82;21237;-77
2021/03/29 08:31:06;;;;;;;43.75;22.13;;;;;;;12.08;52.65;100259.78;2158117;82;21311;-78
2021/03/29 08:34:07;;;;;;;70.22;20.88;;;;;;;12.28;51.22;100254.23;2158054;82;21419;-79
2021/03/29 08:37:09;;;;;;;32.63;17.17;;;;;;;12.39;51.59;100253.69;2158131;82;21237;-78
2021/03/29 08:40:10;;;;;;;46.05;16.75;;;;;;;12.57;51.18;100252.39;2158047;82;21225;-77
2021/03/29 08:43:11;;;;;;;39.55;17.00;;;;;;;12.81;50.70;100254.33;2158477;82;21075;-79
2021/03/29 08:46:15;;;;;;;34.25;14.85;;;;;;;12.98;50.23;100257.37;2159104;82;21261;-78
2021/03/29 08:49:16;;;;;;;33.00;17.12;;;;;;;13.07;49.01;100253.70;2171341;81;21119;-77
2021/03/29 08:52:17;;;;;;;47.50;23.12;;;;;;;13.25;48.61;100245.41;2175406;81;21248;-78
2021/03/29 08:55:18;;;;;;;29.90;14.70;;;;;;;13.57;48.94;100250.97;2175675;81;21257;-78
2021/03/29 08:58:19;;;;;;;28.52;13.80;;;;;;;13.83;48.06;100246.70;2175547;81;22226;-78
2021/03/29 09:01:20;;;;;;;26.12;12.63;;;;;;;14.03;47.15;100246.28;2173826;81;21268;-78
2021/03/29 09:04:21;;;;;;;28.05;13.93;;;;;;;14.18;45.68;100246.13;2173075;81;21467;-77
2021/03/29 09:07:22;;;;;;;26.80;13.78;;;;;;;14.22;46.16;100249.28;2173497;81;21272;-77
2021/03/29 09:10:23;;;;;;;27.85;15.15;;;;;;;14.30;44.97;100251.63;2173268;81;21130;-79
2021/03/29 09:13:25;;;;;;;155.45;17.98;;;;;;;14.25;45.55;100255.47;2174106;81;21276;-78
2021/03/29 09:16:26;;;;;;;25.10;11.83;;;;;;;14.23;43.85;100251.93;2176991;81;21129;-78
2021/03/29 09:19:27;;;;;;;28.15;14.90;;;;;;;14.16;43.13;100249.16;2173491;81;21134;-78
2021/03/29 09:22:29;;;;;;;26.15;15.65;;;;;;;14.22;44.54;100251.91;2174648;81;21556;-78
2021/03/29 09:25:34;;;;;;;50.12;26.62;;;;;;;14.45;44.56;100248.00;2173184;81;21316;-78
2021/03/29 09:28:36;;;;;;;39.10;15.58;;;;;;;14.69;43.62;100240.10;2172504;82;21350;-76
2021/03/29 09:31:38;;;;;;;24.80;13.28;;;;;;;14.95;42.30;100230.52;2173182;81;21327;-78
2021/03/29 09:34:39;;;;;;;70.50;49.15;;;;;;;15.10;42.31;100227.24;2173960;81;21497;-78
2021/03/29 09:37:40;;;;;;;26.17;14.28;;;;;;;15.35;42.26;100221.91;2173813;81;21276;-78
2021/03/29 09:40:41;;;;;;;24.72;13.35;;;;;;;15.47;41.55;100225.15;2175390;81;21288;-78
2021/03/29 09:43:42;;;;;;;35.85;13.60;;;;;;;15.45;40.74;100222.92;2174037;81;21248;-78
2021/03/29 09:46:43;;;;;;;25.62;12.35;;;;;;;15.45;41.24;100222.50;2173601;81;21285;-78
2021/03/29 09:49:44;;;;;;;39.83;26.50;;;;;;;15.60;41.13;100221.86;2161774;81;21149;-77
2021/03/29 09:52:46;;;;;;;33.70;15.93;;;;;;;15.63;39.78;100224.56;2158350;82;21592;-78
2021/03/29 09:55:47;;;;;;;27.70;11.83;;;;;;;15.71;39.72;100224.66;2156836;82;21411;-78
2021/03/29 09:58:50;;;;;;;19.20;10.48;;;;;;;15.72;39.35;100228.63;2155798;82;21265;-78
2021/03/29 10:01:51;;;;;;;23.15;11.80;;;;;;;15.63;39.79;100224.56;2155454;82;21254;-78
2021/03/29 10:04:53;;;;;;;29.72;9.35;;;;;;;15.64;39.51;100230.71;2155129;82;21583;-78
2021/03/29 10:07:54;;;;;;;21.90;12.00;;;;;;;15.49;38.55;100233.95;2156332;82;21277;-78
2021/03/29 10:10:55;;;;;;;20.55;9.23;;;;;;;15.40;38.65;100229.44;2156351;82;21423;-78
2021/03/29 10:13:56;;;;;;;23.27;10.45;;;;;;;15.34;39.14;100231.10;2155170;82;21528;-78
2021/03/29 10:16:58;;;;;;;37.55;12.53;;;;;;;15.26;40.65;100229.24;2156997;82;21142;-78
2021/03/29 10:19:59;;;;;;;21.93;11.08;;;;;;;15.87;42.82;100230.14;2156740;82;21551;-78
2021/03/29 10:23:00;;;;;;;22.00;10.38;;;;;;;16.33;39.84;100225.40;2156495;82;21130;-78
2021/03/29 10:26:01;;;;;;;26.12;10.50;;;;;;;16.81;42.17;100225.05;2156961;82;21293;-78
2021/03/29 10:29:02;;;;;;;21.30;10.05;;;;;;;17.00;41.07;100222.56;2157548;82;21432;-78
2021/03/29 10:32:03;;;;;;;57.95;12.90;;;;;;;16.97;38.33;100226.05;2157419;82;22099;-79
2021/03/29 10:35:04;;;;;;;22.52;9.80;;;;;;;16.95;38.85;100232.19;2137145;82;21237;-79
2021/03/29 10:38:05;;;;;;;21.33;9.88;;;;;;;17.08;39.80;100228.78;2158524;82;21135;-79
2021/03/29 10:41:06;;;;;;;19.15;9.85;;;;;;;17.31;38.01;100221.91;2157599;82;21269;-79
2021/03/29 10:44:07;;;;;;;17.70;9.83;;;;;;;17.48;37.40;100212.80;2156660;82;21103;-77
2021/03/29 10:47:08;;;;;;;25.15;11.22;;;;;;;17.33;36.34;100219.27;2135386;82;21603;-78
2021/03/29 10:50:10;;;;;;;21.52;9.93;;;;;;;17.10;38.22;100216.05;2171728;81;21288;-77
2021/03/29 10:53:11;;;;;;;24.65;9.98;;;;;;;17.23;39.37;100221.41;2174725;81;21531;-77
2021/03/29 10:56:12;;;;;;;21.50;10.20;;;;;;;17.57;38.56;100218.12;2174882;82;21264;-77
2021/03/29 10:59:13;;;;;;;20.90;9.90;;;;;;;17.56;39.36;100220.33;2173766;81;21130;-76
2021/03/29 11:02:14;;;;;;;25.65;10.32;;;;;;;17.31;37.02;100221.91;2173437;81;21252;-77
2021/03/29 11:05:16;;;;;;;27.75;10.82;;;;;;;16.85;37.69;100225.52;2173453;81;21881;-77
2021/03/29 11:08:19;;;;;;;35.25;13.15;;;;;;;16.70;40.71;100225.39;2173212;81;21272;-77
2021/03/29 11:11:20;;;;;;;27.90;11.78;;;;;;;17.17;40.62;100223.13;2173411;81;21268;-77
2021/03/29 11:14:21;;;;;;;23.42;10.65;;;;;;;16.81;37.18;100224.16;2173368;81;21114;-78
2021/03/29 11:17:25;;;;;;;22.22;10.43;;;;;;;16.08;36.28;100220.30;2173420;81;21622;-77
2021/03/29 11:20:25;;;;;;;20.55;9.53;;;;;;;15.60;38.46;100219.22;2173975;81;21269;-78
2021/03/29 11:23:26;;;;;;;19.73;8.48;;;;;;;15.25;38.65;100224.84;2173542;82;21252;-78
2021/03/29 11:26:27;;;;;;;29.75;11.05;;;;;;;14.72;38.42;100227.90;2173842;81;21153;-79
2021/03/29 11:29:29;;;;;;;23.87;12.03;;;;;;;14.72;39.77;100229.64;2173472;81;21261;-76
2021/03/29 11:32:30;;;;;;;27.67;12.23;;;;;;;15.11;38.14;100226.38;2173749;81;21921;-77
2021/03/29 11:35:31;;;;;;;22.20;11.70;;;;;;;14.78;39.52;100230.66;2174028;81;21253;-77
2021/03/29 11:38:37;;;;;;;25.23;10.35;;;;;;;14.47;39.04;100236.20;2172119;81;21641;-77
2021/03/29 11:41:36;;;;;;;29.40;12.13;;;;;;;14.13;39.75;100238.59;2173173;82;21667;-77
2021/03/29 11:44:37;;;;;;;32.03;10.68;;;;;;;13.84;40.22;100236.66;2173119;81;21127;-77
2021/03/29 11:47:40;;;;;;;21.70;8.90;;;;;;;14.14;40.53;100238.62;2173011;81;21181;-78
2021/03/29 11:50:44;;;;;;;24.02;9.58;;;;;;;14.37;40.49;100232.92;2156567;81;21418;-77
2021/03/29 11:53:45;;;;;;;26.10;11.63;;;;;;;14.68;40.16;100234.39;2154980;82;21124;-78
2021/03/29 11:56:46;;;;;;;23.07;11.75;;;;;;;14.68;40.05;100235.28;2155861;82;21241;-78
2021/03/29 11:59:50;;;;;;;27.77;12.63;;;;;;;14.42;39.79;100232.19;2156351;82;21150;-77
2021/03/29 12:02:57;;;;;;;33.13;11.12;;;;;;;14.14;40.66;100224.18;2154377;82;21272;-77
2021/03/29 12:06:19;;;;;;;29.20;10.80;;;;;;;14.25;41.06;100234.89;2045748;87;21209;-76
2021/03/29 12:09:27;;;;;;;27.30;11.95;;;;;;;14.50;40.67;100222.70;2046248;87;21220;-78
2021/03/29 12:12:23;;;;;;;22.27;12.58;;;;;;;14.26;40.34;100222.22;2047388;87;21318;-77
2021/03/29 12:15:25;;;;;;;29.63;11.05;;;;;;;14.03;41.26;100224.40;2048577;87;21382;-78
2021/03/29 12:18:35;;;;;;;26.42;10.90;;;;;;;14.21;41.02;100223.45;2048970;87;21223;-76
2021/03/29 12:21:37;;;;;;;28.47;11.57;;;;;;;14.29;40.74;100219.64;2048587;87;21319;-76
2021/03/29 12:24:38;;;;;;;25.05;11.73;;;;;;;14.44;40.99;100217.34;2108297;84;21289;-77
2021/03/29 12:27:39;;;;;;;30.32;12.55;;;;;;;14.63;41.38;100211.55;2125691;83;22018;-76
2021/03/29 12:30:40;;;;;;;23.47;11.28;;;;;;;14.89;40.96;100212.44;2125609;83;21144;-77
2021/03/29 12:33:41;;;;;;;19.10;10.60;;;;;;;15.44;41.79;100212.84;2124516;83;21285;-77
2021/03/29 12:36:44;;;;;;;24.05;10.05;;;;;;;15.69;40.74;100203.59;2124829;83;21138;-77
2021/03/29 12:39:48;;;;;;;22.02;9.93;;;;;;;15.76;40.96;100202.80;2125208;83;21280;-77
2021/03/29 12:42:52;;;;;;;26.68;10.88;;;;;;;16.03;40.16;100198.72;2125442;84;21555;-76
2021/03/29 12:45:53;;;;;;;21.57;9.65;;;;;;;16.08;41.51;100197.02;2126238;83;21348;-78
2021/03/29 12:48:54;;;;;;;23.73;10.00;;;;;;;16.12;40.04;100200.14;2126195;83;21147;-78
2021/03/29 12:51:55;;;;;;;18.85;9.60;;;;;;;15.82;41.32;100204.19;2127086;83;21277;-79
2021/03/29 12:54:56;;;;;;;14.50;8.08;;;;;;;15.64;41.00;100205.27;2126765;84;21170;-79
2021/03/29 12:57:57;;;;;;;21.68;9.45;;;;;;;15.37;41.46;100204.84;2126619;83;21261;-78
2021/03/29 13:00:58;;;;;;;23.57;9.63;;;;;;;14.98;42.28;100206.02;2126475;84;21142;-77
2021/03/29 13:04:01;;;;;;;18.67;8.00;;;;;;;14.58;43.15;100209.27;2124700;83;21162;-77
2021/03/29 13:07:11;;;;;;;17.67;9.18;;;;;;;14.36;44.26;100212.34;2123405;83;21319;-79
2021/03/29 13:10:14;;;;;;;23.22;10.10;;;;;;;14.17;44.24;100215.05;2123011;83;21296;-79
2021/03/29 13:13:12;;;;;;;24.25;8.90;;;;;;;14.02;44.95;100215.64;2125065;83;21268;-79
2021/03/29 13:16:13;;;;;;;18.57;9.68;;;;;;;14.07;45.07;100214.84;2125009;83;21150;-79
2021/03/29 13:19:14;;;;;;;42.35;12.90;;;;;;;13.97;45.46;100209.41;2125987;83;21261;-79
2021/03/29 13:22:15;;;;;;;19.35;8.43;;;;;;;13.85;46.38;100207.82;2126343;83;21281;-78
2021/03/29 13:25:18;;;;;;;21.25;7.85;;;;;;;13.83;46.60;100212.16;2126188;83;21146;-78
2021/03/29 13:28:20;;;;;;;14.77;8.77;;;;;;;13.82;46.92;100208.19;2126279;83;21162;-80
2021/03/29 13:31:21;;;;;;;14.47;7.45;;;;;;;13.82;46.92;100208.19;2083399;84;21147;-79
2021/03/29 13:34:22;;;;;;;17.32;8.33;;;;;;;13.91;47.14;100215.85;2082954;85;21371;-78
2021/03/29 13:37:23;;;;;;;19.25;7.87;;;;;;;14.03;47.08;100212.16;2083206;85;21301;-78
2021/03/29 13:40:24;;;;;;;22.67;10.72;;;;;;;14.05;47.42;100217.44;2083667;85;21496;-78
2021/03/29 13:43:26;;;;;;;28.07;12.15;;;;;;;13.99;47.74;100217.31;2059435;86;21289;-79
2021/03/29 13:46:27;;;;;;;37.80;21.50;;;;;;;13.92;48.44;100216.31;2123545;83;21496;-78
2021/03/29 13:49:29;;;;;;;33.58;15.35;;;;;;;13.72;48.60;100213.67;2123363;83;21355;-78